createdAt,value
2023-01-29T00:02:24.034Z,9.85
2023-01-29T00:07:25.928Z,9.32
2023-01-29T00:12:27.750Z,10.13
2023-01-29T00:17:29.889Z,9.90
2023-01-29T00:22:31.724Z,9.48
2023-01-29T00:27:33.869Z,10.32
2023-01-29T00:32:35.814Z,9.95
2023-01-29T00:37:37.949Z,10.13
2023-01-29T00:42:39.767Z,9.50
2023-01-29T00:47:41.605Z,10.48
2023-01-29T00:52:43.436Z,9.77
2023-01-29T00:57:45.274Z,10.18
2023-01-29T01:02:47.170Z,10.63
2023-01-29T01:07:51.180Z,11.60
2023-01-29T01:13:00.734Z,10.88
2023-01-29T01:18:02.810Z,11.68
2023-01-29T01:23:05.093Z,11.97
2023-01-29T01:28:07.182Z,11.75
2023-01-29T01:33:09.074Z,11.70
2023-01-29T01:38:11.212Z,13.32
2023-01-29T01:43:13.318Z,12.82
2023-01-29T01:48:26.673Z,12.57
2023-01-29T01:53:39.905Z,12.77
2023-01-29T01:59:08.218Z,12.93
2023-01-29T02:04:15.275Z,13.40
2023-01-29T02:09:21.871Z,12.52
2023-01-29T02:14:23.883Z,13.73
2023-01-29T02:19:44.488Z,13.80
2023-01-29T02:24:52.451Z,13.57
2023-01-29T02:29:57.407Z,14.20
2023-01-29T02:35:18.163Z,14.63
2023-01-29T02:40:30.024Z,13.35
2023-01-29T02:45:32.007Z,13.05
2023-01-29T02:50:43.001Z,13.77
2023-01-29T02:55:48.599Z,14.43
2023-01-29T03:00:51.997Z,14.25
2023-01-29T03:06:08.345Z,12.52
2023-01-29T03:11:12.334Z,14.55
2023-01-29T03:16:21.750Z,14.02
2023-01-29T03:21:33.655Z,13.73
2023-01-29T03:26:36.350Z,14.55
2023-01-29T03:31:38.543Z,12.90
2023-01-29T03:36:42.677Z,13.85
2023-01-29T03:42:07.951Z,14.23
2023-01-29T03:47:28.628Z,13.93
2023-01-29T03:52:33.067Z,14.93
2023-01-29T03:57:41.036Z,14.02
2023-01-29T04:02:49.057Z,12.82
2023-01-29T04:07:54.727Z,12.30
2023-01-29T04:13:01.879Z,13.10
2023-01-29T04:18:05.543Z,13.52
2023-01-29T04:23:26.912Z,13.35
2023-01-29T04:28:39.518Z,13.02
2023-01-29T04:33:46.813Z,13.05
2023-01-29T04:39:12.768Z,12.70
2023-01-29T04:44:42.825Z,12.98
2023-01-29T04:49:44.796Z,13.07
2023-01-29T04:55:08.571Z,13.85
2023-01-29T05:00:14.012Z,13.73
2023-01-29T05:05:17.715Z,14.10
2023-01-29T05:10:21.004Z,13.00
2023-01-29T05:20:24.495Z,14.27
2023-01-29T05:25:27.768Z,15.98
2023-01-29T05:35:31.667Z,15.35
2023-01-29T05:40:33.592Z,16.30
2023-01-29T05:45:35.434Z,15.68
2023-01-29T05:50:37.280Z,16.08
2023-01-29T05:55:39.390Z,15.88
2023-01-29T06:00:41.467Z,16.40
2023-01-29T06:05:43.297Z,17.30
2023-01-29T06:10:45.147Z,16.52
2023-01-29T06:15:47.086Z,16.63
2023-01-29T06:20:49.036Z,17.00
2023-01-29T06:25:51.083Z,17.88
2023-01-29T06:30:53.113Z,17.73
2023-01-29T06:35:55.841Z,16.88
2023-01-29T06:40:57.953Z,18.13
2023-01-29T06:45:59.816Z,18.05
2023-01-29T06:51:05.504Z,19.05
2023-01-29T06:56:07.713Z,18.65
2023-01-29T07:01:10.667Z,18.77
2023-01-29T07:06:13.060Z,16.13
2023-01-29T07:11:14.913Z,18.10
2023-01-29T07:16:16.966Z,17.58
2023-01-29T07:21:18.851Z,17.58
2023-01-29T07:26:21.308Z,16.05
2023-01-29T07:31:23.857Z,16.88
2023-01-29T07:36:26.357Z,16.60
2023-01-29T07:41:28.553Z,16.33
2023-01-29T07:46:34.900Z,18.33
2023-01-29T07:51:36.907Z,17.83
2023-01-29T07:56:39.210Z,17.88
2023-01-29T08:01:41.341Z,18.10
2023-01-29T08:06:43.372Z,17.58
2023-01-29T08:11:45.203Z,18.05
2023-01-29T08:16:47.437Z,17.15
2023-01-29T08:21:49.515Z,17.40
2023-01-29T08:26:51.760Z,19.50
2023-01-29T08:31:53.895Z,17.98
2023-01-29T08:36:55.902Z,17.20
2023-01-29T08:41:57.919Z,17.52
2023-01-29T08:46:59.890Z,18.30
2023-01-29T08:52:03.126Z,16.00
2023-01-29T08:57:05.780Z,16.92
2023-01-29T09:02:09.280Z,17.65
2023-01-29T09:07:11.157Z,17.45
2023-01-29T09:12:13.141Z,17.98
2023-01-29T09:17:15.121Z,16.27
2023-01-29T09:22:17.150Z,16.35
2023-01-29T09:27:19.012Z,15.18
2023-01-29T09:32:49.797Z,15.05
2023-01-29T09:37:43.379Z,16.13
2023-01-29T09:42:53.681Z,15.73
2023-01-29T09:48:02.385Z,15.23
2023-01-29T09:53:19.990Z,15.45
2023-01-29T09:58:36.215Z,15.82
2023-01-29T10:03:41.040Z,17.70
2023-01-29T10:08:57.230Z,14.50
2023-01-29T10:13:59.045Z,16.50
2023-01-29T10:19:03.985Z,15.85
2023-01-29T10:24:17.726Z,15.93
2023-01-29T10:29:20.248Z,14.77
2023-01-29T10:34:24.905Z,16.60
2023-01-29T10:39:26.951Z,16.17
2023-01-29T10:44:34.964Z,16.55
2023-01-29T10:49:55.474Z,15.82
2023-01-29T10:55:16.058Z,16.58
2023-01-29T11:00:26.493Z,16.20
2023-01-29T11:05:38.929Z,16.45
2023-01-29T11:10:52.488Z,16.90
2023-01-29T11:15:54.652Z,16.23
2023-01-29T11:21:01.099Z,17.17
2023-01-29T11:26:03.101Z,18.88
2023-01-29T11:31:15.371Z,16.95
2023-01-29T11:36:21.471Z,17.52
2023-01-29T11:41:23.312Z,19.23
2023-01-29T11:46:25.349Z,17.15
2023-01-29T11:51:28.719Z,17.90
2023-01-29T11:56:41.915Z,17.92
2023-01-29T12:01:43.978Z,19.08
2023-01-29T12:06:47.451Z,19.42
2023-01-29T12:16:54.716Z,18.83
2023-01-29T12:22:21.407Z,18.65
2023-01-29T12:27:41.770Z,18.35
2023-01-29T12:32:43.865Z,18.95
2023-01-29T12:37:45.675Z,19.67
2023-01-29T12:42:51.301Z,18.63
2023-01-29T12:47:58.749Z,18.40
2023-01-29T12:53:02.495Z,19.10
2023-01-29T12:58:05.431Z,18.63
2023-01-29T13:03:10.235Z,20.85
2023-01-29T13:08:16.135Z,20.52
2023-01-29T13:13:33.377Z,19.70
2023-01-29T13:18:41.386Z,21.02
2023-01-29T13:23:49.159Z,21.52
2023-01-29T13:28:51.708Z,20.15
2023-01-29T13:34:02.694Z,19.40
2023-01-29T13:39:08.916Z,21.23
2023-01-29T13:44:49.141Z,20.80
2023-01-29T13:49:56.015Z,20.77
2023-01-29T13:55:00.728Z,21.13
2023-01-29T14:00:02.908Z,21.13
2023-01-29T14:05:25.350Z,22.05
2023-01-29T14:10:28.736Z,20.63
2023-01-29T14:15:32.278Z,22.70
2023-01-29T14:20:52.501Z,22.23
2023-01-29T14:25:54.617Z,22.23
2023-01-29T14:30:56.559Z,21.40
2023-01-29T14:35:58.768Z,22.17
2023-01-29T14:41:25.163Z,22.23
2023-01-29T14:46:33.171Z,22.27
2023-01-29T14:51:37.432Z,24.30
2023-01-29T14:56:53.762Z,22.60
2023-01-29T15:02:00.263Z,23.08
2023-01-29T15:07:15.445Z,25.13
2023-01-29T15:12:48.326Z,24.58
2023-01-29T15:18:08.577Z,27.25
2023-01-29T15:23:31.011Z,25.88
2023-01-29T15:28:35.223Z,29.38
2023-01-29T15:33:38.223Z,27.90
2023-01-29T15:38:40.200Z,27.60
2023-01-29T15:43:48.514Z,26.13
2023-01-29T15:48:51.879Z,26.52
2023-01-29T15:53:56.614Z,28.70
2023-01-29T15:59:02.852Z,26.27
2023-01-29T16:04:13.234Z,27.88
2023-01-29T16:09:19.315Z,27.75
2023-01-29T16:14:22.862Z,27.75
2023-01-29T16:19:27.757Z,26.70
2023-01-29T16:24:32.297Z,26.40
2023-01-29T16:29:35.687Z,27.55
2023-01-29T16:34:40.563Z,26.75
2023-01-29T16:39:46.932Z,26.30
2023-01-29T16:45:06.152Z,29.05
2023-01-29T16:50:43.431Z,28.13
2023-01-29T16:56:02.555Z,28.10
2023-01-29T17:01:09.230Z,26.42
2023-01-29T17:06:24.626Z,29.05
2023-01-29T17:11:40.452Z,26.05
2023-01-29T17:16:55.497Z,28.08
2023-01-29T17:21:58.828Z,26.33
2023-01-29T17:27:02.072Z,25.83
2023-01-29T17:37:06.429Z,23.17
2023-01-29T17:42:13.069Z,26.70
2023-01-29T17:47:15.239Z,27.35
2023-01-29T17:52:17.409Z,26.15
2023-01-29T17:57:19.564Z,24.88
2023-01-29T18:02:29.489Z,26.55
2023-01-29T18:07:31.813Z,24.90
2023-01-29T18:12:33.808Z,23.63
2023-01-29T18:17:35.998Z,24.45
2023-01-29T18:22:38.150Z,24.38
2023-01-29T18:27:40.362Z,24.67
2023-01-29T18:32:42.543Z,27.02
2023-01-29T18:37:44.731Z,23.20
2023-01-29T18:42:48.126Z,23.48
2023-01-29T18:47:50.298Z,24.00
2023-01-29T18:52:53.708Z,25.75
2023-01-29T18:58:27.048Z,25.95
2023-01-29T19:03:19.156Z,25.80
2023-01-29T19:08:21.383Z,25.40
2023-01-29T19:13:23.591Z,26.05
2023-01-29T19:18:26.006Z,22.52
2023-01-29T19:23:27.835Z,27.35
2023-01-29T19:28:29.696Z,24.88
2023-01-29T19:33:31.767Z,24.40
2023-01-29T19:38:34.049Z,25.27
2023-01-29T19:43:36.179Z,26.17
2023-01-29T19:48:38.434Z,25.25
2023-01-29T19:53:42.168Z,25.77
2023-01-29T19:58:44.888Z,23.27
2023-01-29T20:03:48.799Z,23.73
2023-01-29T20:08:51.303Z,24.52
2023-01-29T20:13:53.816Z,25.73
2023-01-29T20:18:55.978Z,24.73
2023-01-29T20:24:16.717Z,23.50
2023-01-29T20:29:18.742Z,25.88
2023-01-29T20:34:20.934Z,25.77
2023-01-29T20:39:22.923Z,23.15
2023-01-29T20:44:25.335Z,23.05
2023-01-29T20:49:27.365Z,22.52
2023-01-29T20:54:29.195Z,21.80
2023-01-29T20:59:31.118Z,22.27
2023-01-29T21:04:32.967Z,21.95
2023-01-29T21:09:35.195Z,22.13
2023-01-29T21:14:37.571Z,22.27
2023-01-29T21:19:39.581Z,22.23
2023-01-29T21:24:41.868Z,21.73
2023-01-29T21:29:44.292Z,21.23
2023-01-29T21:34:46.252Z,20.88
2023-01-29T21:39:48.501Z,20.33
2023-01-29T21:44:50.543Z,21.30
2023-01-29T21:49:52.537Z,20.85
2023-01-29T21:54:54.667Z,22.55
2023-01-29T21:59:56.492Z,21.67
2023-01-29T22:05:08.802Z,22.38
2023-01-29T22:10:20.348Z,22.85
2023-01-29T22:15:23.970Z,21.48
2023-01-29T22:20:26.154Z,21.58
2023-01-29T22:25:28.306Z,21.45
2023-01-29T22:30:30.485Z,22.90
2023-01-29T22:35:32.423Z,22.73
2023-01-29T22:40:34.428Z,21.67
2023-01-29T22:45:39.787Z,22.00
2023-01-29T22:50:41.950Z,20.85
2023-01-29T22:55:43.818Z,20.50
2023-01-29T23:00:49.620Z,21.52
2023-01-29T23:05:51.461Z,20.75
2023-01-29T23:10:53.664Z,18.92
2023-01-29T23:15:59.000Z,20.88
2023-01-29T23:21:01.237Z,20.08
2023-01-29T23:26:04.314Z,21.67
2023-01-29T23:31:06.415Z,21.13
2023-01-29T23:36:08.954Z,21.97
2023-01-29T23:41:11.282Z,20.50
2023-01-29T23:46:13.524Z,20.50
2023-01-29T23:51:15.383Z,20.85
2023-01-29T23:56:17.213Z,20.27
